^^
Saratoga-Weather Station Historical Data
Daily Summary for March 03, 2021 Units:  Both    English   Metric
Daily Weekly Monthly Yearly Custom
  High: Low: Average:
Temperature: 48.6 °F /  9.2 °C 36.9 °F /  2.7 °C 40.3 °F /  4.6 °C
Dew Point: 40.3 °F /  4.6 °C 34.5 °F /  1.4 °C 36.5 °F /  2.5 °C
Humidity: 92% 73% 87%
Wind Speed: 2.9mph /  4.7km/h - 0.1mph /  0.2km/h
Wind Gust: 3mph /  4.8km/h - -
Wind- - East
Pressure: 30.4 in /  1029.8 hPa 30.4 in /  1028.8 hPa -
Precipitation: 0 in /  0.0 mm    
Historical Graphs
 
 
Tabular Data for March 03, 2021
Time Temperature Dew Point Pressure Wind Wind Speed Wind Gust Humidity Rainfall Rate (Hourly) solar
00:02 41.7 °F /  5.4 °C 36.9 °F /  2.7 °C 30.4in /  1029.8hPa Calm     83% 0in /  0.0mm 0 W/m2
00:07 41.7 °F /  5.4 °C 36.7 °F /  2.6 °C 30.4in /  1029.8hPa Calm     82% 0in /  0.0mm 0 W/m2
00:12 41.7 °F /  5.4 °C 36.7 °F /  2.6 °C 30.4in /  1029.8hPa Calm     82% 0in /  0.0mm 0 W/m2
00:17 41.7 °F /  5.4 °C 36.9 °F /  2.7 °C 30.4in /  1029.8hPa Calm     83% 0in /  0.0mm 0 W/m2
00:22 41.5 °F /  5.3 °C 36.5 °F /  2.5 °C 30.4in /  1029.8hPa Calm     82% 0in /  0.0mm 0 W/m2
00:27 41.5 °F /  5.3 °C 36.5 °F /  2.5 °C 30.4in /  1029.5hPa Calm     82% 0in /  0.0mm 0 W/m2
00:32 41.4 °F /  5.2 °C 36.3 °F /  2.4 °C 30.4in /  1029.8hPa Calm     82% 0in /  0.0mm 0 W/m2
00:37 41.2 °F /  5.1 °C 36.1 °F /  2.3 °C 30.4in /  1029.8hPa Calm     82% 0in /  0.0mm 0 W/m2
00:42 41.2 °F /  5.1 °C 36.1 °F /  2.3 °C 30.4in /  1029.5hPa Calm     82% 0in /  0.0mm 0 W/m2
00:47 41.2 °F /  5.1 °C 36.5 °F /  2.5 °C 30.4in /  1029.8hPa Calm     83% 0in /  0.0mm 0 W/m2
00:52 41.2 °F /  5.1 °C 36.5 °F /  2.5 °C 30.4in /  1029.8hPa Calm     83% 0in /  0.0mm 0 W/m2
00:57 41.2 °F /  5.1 °C 36.5 °F /  2.5 °C 30.4in /  1029.8hPa Calm     83% 0in /  0.0mm 0 W/m2
01:02 41.2 °F /  5.1 °C 36.5 °F /  2.5 °C 30.4in /  1029.5hPa Calm     83% 0in /  0.0mm 0 W/m2
01:07 41 °F /  5 °C 36.5 °F /  2.5 °C 30.4in /  1029.8hPa Calm     84% 0in /  0.0mm 0 W/m2
01:12 40.8 °F /  4.9 °C 36.3 °F /  2.4 °C 30.4in /  1029.5hPa Calm     84% 0in /  0.0mm 0 W/m2
01:17 40.6 °F /  4.8 °C 36.1 °F /  2.3 °C 30.4in /  1029.5hPa Calm     84% 0in /  0.0mm 0 W/m2
01:22 40.5 °F /  4.7 °C 36 °F /  2.2 °C 30.4in /  1029.5hPa Calm     84% 0in /  0.0mm 0 W/m2
01:27 40.5 °F /  4.7 °C 36.3 °F /  2.4 °C 30.4in /  1029.5hPa Calm     85% 0in /  0.0mm 0 W/m2
01:32 40.5 °F /  4.7 °C 36.3 °F /  2.4 °C 30.4in /  1029.5hPa Calm     85% 0in /  0.0mm 0 W/m2
01:37 40.3 °F /  4.6 °C 36.5 °F /  2.5 °C 30.4in /  1029.5hPa Calm     86% 0in /  0.0mm 0 W/m2
01:42 40.3 °F /  4.6 °C 36.5 °F /  2.5 °C 30.4in /  1029.5hPa Calm     86% 0in /  0.0mm 0 W/m2
01:47 40.1 °F /  4.5 °C 36.3 °F /  2.4 °C 30.4in /  1029.5hPa Calm     86% 0in /  0.0mm 0 W/m2
01:52 39.9 °F /  4.4 °C 36.1 °F /  2.3 °C 30.4in /  1029.5hPa Calm     86% 0in /  0.0mm 0 W/m2
01:57 39.9 °F /  4.4 °C 36.1 °F /  2.3 °C 30.4in /  1029.5hPa Calm     86% 0in /  0.0mm 0 W/m2
02:02 39.9 °F /  4.4 °C 36.1 °F /  2.3 °C 30.4in /  1029.5hPa Calm     86% 0in /  0.0mm 0 W/m2
02:07 39.9 °F /  4.4 °C 36.1 °F /  2.3 °C 30.4in /  1029.5hPa Calm     86% 0in /  0.0mm 0 W/m2
02:12 39.9 °F /  4.4 °C 36.1 °F /  2.3 °C 30.4in /  1029.5hPa Calm     86% 0in /  0.0mm 0 W/m2
02:17 39.9 °F /  4.4 °C 36.3 °F /  2.4 °C 30.4in /  1029.5hPa Calm     87% 0in /  0.0mm 0 W/m2
02:22 40.3 °F /  4.6 °C 36.7 °F /  2.6 °C 30.4in /  1029.5hPa Calm     87% 0in /  0.0mm 0 W/m2
02:27 40.3 °F /  4.6 °C 36.5 °F /  2.5 °C 30.4in /  1029.5hPa Calm     86% 0in /  0.0mm 0 W/m2
02:32 40.3 °F /  4.6 °C 36.5 °F /  2.5 °C 30.4in /  1029.5hPa Calm     86% 0in /  0.0mm 0 W/m2
02:37 40.3 °F /  4.6 °C 36.5 °F /  2.5 °C 30.4in /  1029.5hPa Calm     86% 0in /  0.0mm 0 W/m2
02:42 40.3 °F /  4.6 °C 36.5 °F /  2.5 °C 30.4in /  1029.5hPa Calm   1mph /  1.6km/h 86% 0in /  0.0mm 0 W/m2
02:47 40.3 °F /  4.6 °C 36.5 °F /  2.5 °C 30.4in /  1029.5hPa Calm     86% 0in /  0.0mm 0 W/m2
02:52 40.3 °F /  4.6 °C 36.5 °F /  2.5 °C 30.4in /  1029.5hPa Calm     86% 0in /  0.0mm 0 W/m2
02:57 40.1 °F /  4.5 °C 36.3 °F /  2.4 °C 30.4in /  1029.5hPa Calm     86% 0in /  0.0mm 0 W/m2
03:02 40.1 °F /  4.5 °C 36.3 °F /  2.4 °C 30.4in /  1029.5hPa Calm     86% 0in /  0.0mm 0 W/m2
03:07 39.9 °F /  4.4 °C 36.1 °F /  2.3 °C 30.4in /  1029.1hPa Calm     86% 0in /  0.0mm 0 W/m2
03:12 39.9 °F /  4.4 °C 36.3 °F /  2.4 °C 30.4in /  1029.1hPa Calm     87% 0in /  0.0mm 0 W/m2
03:22 39.7 °F /  4.3 °C 36.1 °F /  2.3 °C 30.4in /  1029.1hPa Calm     87% 0in /  0.0mm 0 W/m2
03:27 39.7 °F /  4.3 °C 36.5 °F /  2.5 °C 30.4in /  1029.1hPa Calm     88% 0in /  0.0mm 0 W/m2
03:32 39.7 °F /  4.3 °C 36.5 °F /  2.5 °C 30.4in /  1029.1hPa Calm   1mph /  1.6km/h 88% 0in /  0.0mm 0 W/m2
03:37 39.9 °F /  4.4 °C 36.7 °F /  2.6 °C 30.4in /  1029.1hPa Calm   1mph /  1.6km/h 88% 0in /  0.0mm 0 W/m2
03:42 39.9 °F /  4.4 °C 36.7 °F /  2.6 °C 30.4in /  1028.8hPa Calm     88% 0in /  0.0mm 0 W/m2
03:47 39.9 °F /  4.4 °C 36.7 °F /  2.6 °C 30.4in /  1029.1hPa Calm     88% 0in /  0.0mm 0 W/m2
03:52 39.9 °F /  4.4 °C 36.7 °F /  2.6 °C 30.4in /  1028.8hPa Calm     88% 0in /  0.0mm 0 W/m2
03:58 39.9 °F /  4.4 °C 36.7 °F /  2.6 °C 30.4in /  1029.1hPa Calm     88% 0in /  0.0mm 0 W/m2
04:03 39.7 °F /  4.3 °C 36.1 °F /  2.3 °C 30.4in /  1029.1hPa Calm     87% 0in /  0.0mm 0 W/m2
04:08 39.7 °F /  4.3 °C 36.1 °F /  2.3 °C 30.4in /  1029.1hPa Calm     87% 0in /  0.0mm 0 W/m2
04:13 39.7 °F /  4.3 °C 36.1 °F /  2.3 °C 30.4in /  1029.1hPa Calm     87% 0in /  0.0mm 0 W/m2
04:18 39.6 °F /  4.2 °C 36 °F /  2.2 °C 30.4in /  1029.1hPa Calm     87% 0in /  0.0mm 0 W/m2
04:23 39.6 °F /  4.2 °C 36 °F /  2.2 °C 30.4in /  1029.1hPa South 0.9mph /  1.4km/h 1mph /  1.6km/h 87% 0in /  0.0mm 0 W/m2
04:28 39.7 °F /  4.3 °C 36.1 °F /  2.3 °C 30.4in /  1029.1hPa Calm     87% 0in /  0.0mm 0 W/m2
04:33 39.7 °F /  4.3 °C 36.5 °F /  2.5 °C 30.4in /  1029.1hPa Calm     88% 0in /  0.0mm 0 W/m2
04:38 39.7 °F /  4.3 °C 36.5 °F /  2.5 °C 30.4in /  1029.1hPa Calm     88% 0in /  0.0mm 0 W/m2
04:43 39.7 °F /  4.3 °C 36.5 °F /  2.5 °C 30.4in /  1029.1hPa Calm     88% 0in /  0.0mm 0 W/m2
04:48 39.7 °F /  4.3 °C 36.5 °F /  2.5 °C 30.4in /  1029.1hPa Calm     88% 0in /  0.0mm 0 W/m2
04:53 39.7 °F /  4.3 °C 36.5 °F /  2.5 °C 30.4in /  1029.1hPa Calm     88% 0in /  0.0mm 0 W/m2
04:58 39.7 °F /  4.3 °C 36.5 °F /  2.5 °C 30.4in /  1029.1hPa Calm     88% 0in /  0.0mm 0 W/m2
05:03 39.7 °F /  4.3 °C 36.5 °F /  2.5 °C 30.4in /  1029.1hPa Calm     88% 0in /  0.0mm 0 W/m2
05:08 39.7 °F /  4.3 °C 36.5 °F /  2.5 °C 30.4in /  1029.1hPa Calm     88% 0in /  0.0mm 0 W/m2
05:13 39.7 °F /  4.3 °C 36.5 °F /  2.5 °C 30.4in /  1029.1hPa Calm     88% 0in /  0.0mm 0 W/m2
05:18 39.6 °F /  4.2 °C 36.3 °F /  2.4 °C 30.4in /  1029.1hPa Calm     88% 0in /  0.0mm 0 W/m2
05:23 39.6 °F /  4.2 °C 36.3 °F /  2.4 °C 30.4in /  1029.1hPa Calm     88% 0in /  0.0mm 0 W/m2
05:28 39.4 °F /  4.1 °C 36.1 °F /  2.3 °C 30.4in /  1029.1hPa Calm     88% 0in /  0.0mm 0 W/m2
05:33 39 °F /  3.9 °C 35.8 °F /  2.1 °C 30.4in /  1029.1hPa Calm     88% 0in /  0.0mm 0 W/m2
05:38 39 °F /  3.9 °C 35.8 °F /  2.1 °C 30.4in /  1029.1hPa Calm     88% 0in /  0.0mm 0 W/m2
05:43 38.8 °F /  3.8 °C 35.6 °F /  2 °C 30.4in /  1029.1hPa Calm     88% 0in /  0.0mm 0 W/m2
05:48 38.8 °F /  3.8 °C 35.6 °F /  2 °C 30.4in /  1029.1hPa Calm     88% 0in /  0.0mm 0 W/m2
05:53 38.7 °F /  3.7 °C 35.4 °F /  1.9 °C 30.4in /  1029.1hPa Calm     88% 0in /  0.0mm 0 W/m2
05:58 38.7 °F /  3.7 °C 35.8 °F /  2.1 °C 30.4in /  1029.1hPa Calm     89% 0in /  0.0mm 0 W/m2
06:03 38.5 °F /  3.6 °C 35.6 °F /  2 °C 30.4in /  1029.1hPa Calm     89% 0in /  0.0mm 0 W/m2
06:08 38.5 °F /  3.6 °C 35.6 °F /  2 °C 30.4in /  1029.1hPa Calm     89% 0in /  0.0mm 0 W/m2
06:13 38.3 °F /  3.5 °C 35.4 °F /  1.9 °C 30.4in /  1029.1hPa Calm     89% 0in /  0.0mm 0 W/m2
06:18 38.3 °F /  3.5 °C 35.4 °F /  1.9 °C 30.4in /  1029.1hPa Calm     89% 0in /  0.0mm 0 W/m2
06:23 38.1 °F /  3.4 °C 35.2 °F /  1.8 °C 30.4in /  1029.1hPa Calm     89% 0in /  0.0mm 0 W/m2
06:28 37.9 °F /  3.3 °C 35.1 °F /  1.7 °C 30.4in /  1029.1hPa Calm     89% 0in /  0.0mm 0 W/m2
06:33 37.9 °F /  3.3 °C 35.1 °F /  1.7 °C 30.4in /  1028.8hPa Calm     89% 0in /  0.0mm 0 W/m2
06:38 37.9 °F /  3.3 °C 35.2 °F /  1.8 °C 30.4in /  1028.8hPa Calm     90% 0in /  0.0mm 0 W/m2
06:43 37.9 °F /  3.3 °C 35.2 °F /  1.8 °C 30.4in /  1029.1hPa Calm     90% 0in /  0.0mm 0 W/m2
06:48 37.9 °F /  3.3 °C 35.2 °F /  1.8 °C 30.4in /  1028.8hPa Calm     90% 0in /  0.0mm 0 W/m2
06:53 37.8 °F /  3.2 °C 35.1 °F /  1.7 °C 30.4in /  1028.8hPa Calm     90% 0in /  0.0mm 0 W/m2
06:58 37.8 °F /  3.2 °C 35.1 °F /  1.7 °C 30.4in /  1028.8hPa Calm     90% 0in /  0.0mm 0 W/m2
07:03 37.6 °F /  3.1 °C 34.9 °F /  1.6 °C 30.4in /  1029.1hPa Calm     90% 0in /  0.0mm 0 W/m2
07:08 37.6 °F /  3.1 °C 34.9 °F /  1.6 °C 30.4in /  1029.1hPa Calm     90% 0in /  0.0mm 0 W/m2
07:13 37.6 °F /  3.1 °C 34.9 °F /  1.6 °C 30.4in /  1028.8hPa Calm     90% 0in /  0.0mm 0 W/m2
07:18 37.2 °F /  2.9 °C 34.5 °F /  1.4 °C 30.4in /  1028.8hPa Calm     90% 0in /  0.0mm 0 W/m2
07:23 37.2 °F /  2.9 °C 34.5 °F /  1.4 °C 30.4in /  1028.8hPa Calm     90% 0in /  0.0mm 5 W/m2
07:28 37.2 °F /  2.9 °C 34.9 °F /  1.6 °C 30.4in /  1028.8hPa Calm     91% 0in /  0.0mm 7 W/m2
07:33 37.2 °F /  2.9 °C 34.9 °F /  1.6 °C 30.4in /  1029.1hPa Calm     91% 0in /  0.0mm 9 W/m2
07:38 37.2 °F /  2.9 °C 34.9 °F /  1.6 °C 30.4in /  1029.1hPa Calm     91% 0in /  0.0mm 9 W/m2
07:43 37.2 °F /  2.9 °C 34.9 °F /  1.6 °C 30.4in /  1029.1hPa Calm     91% 0in /  0.0mm 12 W/m2
07:48 37.2 °F /  2.9 °C 34.9 °F /  1.6 °C 30.4in /  1029.1hPa Calm     91% 0in /  0.0mm 12 W/m2
07:53 37.2 °F /  2.9 °C 34.9 °F /  1.6 °C 30.4in /  1029.1hPa Calm     91% 0in /  0.0mm 14 W/m2
07:58 37.2 °F /  2.9 °C 34.9 °F /  1.6 °C 30.4in /  1029.1hPa Calm     91% 0in /  0.0mm 18 W/m2
08:03 37 °F /  2.8 °C 34.7 °F /  1.5 °C 30.4in /  1029.1hPa Calm     91% 0in /  0.0mm 21 W/m2
08:08 37 °F /  2.8 °C 34.7 °F /  1.5 °C 30.4in /  1029.1hPa Calm     91% 0in /  0.0mm 28 W/m2
08:13 36.9 °F /  2.7 °C 34.5 °F /  1.4 °C 30.4in /  1029.5hPa Calm     91% 0in /  0.0mm 35 W/m2
08:18 37 °F /  2.8 °C 34.7 °F /  1.5 °C 30.4in /  1029.1hPa Calm     91% 0in /  0.0mm 44 W/m2
08:23 37 °F /  2.8 °C 34.7 °F /  1.5 °C 30.4in /  1029.1hPa South 0.9mph /  1.4km/h 1mph /  1.6km/h 91% 0in /  0.0mm 56 W/m2
08:28 37.2 °F /  2.9 °C 35.1 °F /  1.7 °C 30.4in /  1029.1hPa Calm     92% 0in /  0.0mm 62 W/m2
08:33 37.6 °F /  3.1 °C 35.4 °F /  1.9 °C 30.4in /  1029.1hPa Calm     92% 0in /  0.0mm 69 W/m2
08:38 37.8 °F /  3.2 °C 35.6 °F /  2 °C 30.4in /  1029.5hPa Calm     92% 0in /  0.0mm 74 W/m2
08:43 37.9 °F /  3.3 °C 35.8 °F /  2.1 °C 30.4in /  1029.5hPa Calm     92% 0in /  0.0mm 95 W/m2
08:48 38.1 °F /  3.4 °C 36 °F /  2.2 °C 30.4in /  1029.5hPa Calm     92% 0in /  0.0mm 109 W/m2
08:53 38.5 °F /  3.6 °C 36.3 °F /  2.4 °C 30.4in /  1029.5hPa Calm     92% 0in /  0.0mm 121 W/m2
08:58 38.7 °F /  3.7 °C 36.3 °F /  2.4 °C 30.4in /  1029.5hPa Calm     91% 0in /  0.0mm 130 W/m2
09:03 39 °F /  3.9 °C 36.7 °F /  2.6 °C 30.4in /  1029.5hPa Calm     91% 0in /  0.0mm 141 W/m2
09:08 39.6 °F /  4.2 °C 37.4 °F /  3 °C 30.4in /  1029.5hPa Calm     92% 0in /  0.0mm 158 W/m2
09:13 40.1 °F /  4.5 °C 37.8 °F /  3.2 °C 30.4in /  1029.5hPa Calm     91% 0in /  0.0mm 167 W/m2
09:18 40.6 °F /  4.8 °C 37.9 °F /  3.3 °C 30.4in /  1029.5hPa Calm     90% 0in /  0.0mm 178 W/m2
09:23 41.4 °F /  5.2 °C 38.7 °F /  3.7 °C 30.4in /  1029.5hPa Calm     90% 0in /  0.0mm 190 W/m2
09:28 41.9 °F /  5.5 °C 38.7 °F /  3.7 °C 30.4in /  1029.5hPa Calm     88% 0in /  0.0mm 192 W/m2
09:33 42.4 °F /  5.8 °C 38.8 °F /  3.8 °C 30.4in /  1029.5hPa Calm     87% 0in /  0.0mm 209 W/m2
09:38 43.2 °F /  6.2 °C 39.2 °F /  4 °C 30.4in /  1029.5hPa ESE 0.9mph /  1.4km/h 1mph /  1.6km/h 86% 0in /  0.0mm 221 W/m2
09:43 43.7 °F /  6.5 °C 39.2 °F /  4 °C 30.4in /  1029.5hPa Calm   2mph /  3.2km/h 84% 0in /  0.0mm 232 W/m2
09:48 44.2 °F /  6.8 °C 39 °F /  3.9 °C 30.4in /  1029.5hPa East 2.9mph /  4.7km/h 3mph /  4.8km/h 82% 0in /  0.0mm 244 W/m2
09:53 44.4 °F /  6.9 °C 39 °F /  3.9 °C 30.4in /  1029.5hPa Calm   1mph /  1.6km/h 81% 0in /  0.0mm 257 W/m2
09:58 44.8 °F /  7.1 °C 39.4 °F /  4.1 °C 30.4in /  1029.5hPa Calm   2mph /  3.2km/h 81% 0in /  0.0mm 260 W/m2
10:03 45.1 °F /  7.3 °C 39.4 °F /  4.1 °C 30.4in /  1029.5hPa Calm   2mph /  3.2km/h 80% 0in /  0.0mm 269 W/m2
10:08 45.5 °F /  7.5 °C 39 °F /  3.9 °C 30.4in /  1029.5hPa East 2mph /  3.2km/h 2mph /  3.2km/h 78% 0in /  0.0mm 278 W/m2
10:13 45.9 °F /  7.7 °C 39.4 °F /  4.1 °C 30.4in /  1029.5hPa East 0.9mph /  1.4km/h 2mph /  3.2km/h 78% 0in /  0.0mm 288 W/m2
10:18 46 °F /  7.8 °C 39.2 °F /  4 °C 30.4in /  1029.1hPa ENE 2mph /  3.2km/h 2mph /  3.2km/h 77% 0in /  0.0mm 295 W/m2
10:24 46.6 °F /  8.1 °C 39.7 °F /  4.3 °C 30.4in /  1029.1hPa East 2mph /  3.2km/h 2mph /  3.2km/h 77% 0in /  0.0mm 304 W/m2
10:29 46.8 °F /  8.2 °C 39.2 °F /  4 °C 30.4in /  1029.1hPa ENE 0.9mph /  1.4km/h 3mph /  4.8km/h 75% 0in /  0.0mm 248 W/m2
10:34 46.8 °F /  8.2 °C 39.6 °F /  4.2 °C 30.4in /  1029.1hPa ENE 0.9mph /  1.4km/h 2mph /  3.2km/h 76% 0in /  0.0mm 311 W/m2
10:39 46.9 °F /  8.3 °C 39.4 °F /  4.1 °C 30.4in /  1029.1hPa ENE 2mph /  3.2km/h 3mph /  4.8km/h 75% 0in /  0.0mm 323 W/m2
10:44 47.1 °F /  8.4 °C 39.6 °F /  4.2 °C 30.4in /  1029.1hPa Calm   2mph /  3.2km/h 75% 0in /  0.0mm 330 W/m2
10:49 47.7 °F /  8.7 °C 40.1 °F /  4.5 °C 30.4in /  1029.1hPa East 2mph /  3.2km/h 3mph /  4.8km/h 75% 0in /  0.0mm 343 W/m2
10:54 48.2 °F /  9 °C 40.3 °F /  4.6 °C 30.4in /  1029.1hPa East 0.9mph /  1.4km/h 2mph /  3.2km/h 74% 0in /  0.0mm 350 W/m2
10:59 48.6 °F /  9.2 °C 40.3 °F /  4.6 °C 30.4in /  1028.8hPa East 0.9mph /  1.4km/h 3mph /  4.8km/h 73% 0in /  0.0mm 353 W/m2
Juneau County Weather
Compliments of Weather Underground - 4 mb